createdAt,value
2023-02-11T00:00:42.070Z,6.23
2023-02-11T00:03:08.896Z,6.21
2023-02-11T00:05:35.485Z,6.18
2023-02-11T00:08:02.223Z,6.20
2023-02-11T00:10:28.768Z,6.19
2023-02-11T00:12:55.919Z,6.08
2023-02-11T00:15:22.672Z,6.17
2023-02-11T00:17:49.152Z,6.16
2023-02-11T00:20:15.794Z,6.10
2023-02-11T00:22:42.285Z,6.08
2023-02-11T00:25:08.756Z,6.09
2023-02-11T00:27:37.163Z,6.08
2023-02-11T00:30:05.295Z,6.05
2023-02-11T00:32:32.109Z,6.08
2023-02-11T00:34:58.692Z,6.13
2023-02-11T00:37:25.270Z,6.09
2023-02-11T00:39:51.785Z,6.07
2023-02-11T00:42:18.396Z,6.11
2023-02-11T00:44:44.873Z,6.10
2023-02-11T00:47:11.728Z,6.09
2023-02-11T00:49:40.304Z,6.08
2023-02-11T00:52:07.313Z,6.03
2023-02-11T00:54:33.852Z,6.03
2023-02-11T00:57:00.357Z,6.04
2023-02-11T00:59:27.093Z,6.00
2023-02-11T01:01:53.715Z,6.00
2023-02-11T01:04:20.313Z,5.99
2023-02-11T01:06:46.850Z,6.01
2023-02-11T01:09:13.375Z,6.03
2023-02-11T01:11:39.959Z,6.08
2023-02-11T01:14:06.511Z,6.05
2023-02-11T01:16:33.098Z,6.05
2023-02-11T01:18:59.630Z,6.05
2023-02-11T01:21:26.480Z,6.11
2023-02-11T01:23:53.157Z,6.10
2023-02-11T01:26:19.849Z,6.12
2023-02-11T01:28:46.364Z,6.09
2023-02-11T01:31:12.956Z,6.11
2023-02-11T01:33:40.004Z,6.09
2023-02-11T01:36:07.688Z,6.08
2023-02-11T01:38:34.983Z,6.02
2023-02-11T01:41:08.255Z,5.97
2023-02-11T01:43:40.045Z,5.87
2023-02-11T01:46:26.801Z,5.95
2023-02-11T01:48:56.721Z,5.93
2023-02-11T01:51:44.670Z,5.89
2023-02-11T01:54:32.266Z,5.84
2023-02-11T01:57:18.175Z,5.80
2023-02-11T01:59:47.825Z,5.80
2023-02-11T02:02:17.922Z,5.77
2023-02-11T02:04:55.707Z,5.72
2023-02-11T02:07:32.561Z,5.63
2023-02-11T02:10:04.550Z,5.58
2023-02-11T02:12:31.068Z,5.57
2023-02-11T02:15:29.941Z,5.61
2023-02-11T02:18:08.013Z,5.59
2023-02-11T02:24:22.313Z,5.56
2023-02-11T02:27:07.074Z,5.59
2023-02-11T02:29:51.665Z,5.59
2023-02-11T02:32:38.961Z,5.60
2023-02-11T02:35:18.428Z,5.58
2023-02-11T02:37:51.986Z,5.63
2023-02-11T02:40:25.894Z,5.72
2023-02-11T02:42:53.202Z,5.65
2023-02-11T02:45:19.851Z,5.61
2023-02-11T02:47:46.423Z,5.62
2023-02-11T02:50:14.192Z,5.59
2023-02-11T02:52:58.524Z,5.63
2023-02-11T02:55:35.193Z,5.65
2023-02-11T02:58:47.388Z,5.65
2023-02-11T03:01:35.736Z,5.66
2023-02-11T03:04:29.652Z,5.61
2023-02-11T03:07:14.876Z,5.69
2023-02-11T03:10:07.646Z,5.70
2023-02-11T03:12:35.335Z,5.67
2023-02-11T03:15:03.528Z,5.67
2023-02-11T03:17:31.018Z,5.69
2023-02-11T03:19:59.093Z,5.70
2023-02-11T03:22:30.975Z,5.75
2023-02-11T03:24:57.689Z,5.62
2023-02-11T03:27:33.807Z,5.65
2023-02-11T03:30:13.775Z,5.66
2023-02-11T03:32:52.172Z,5.63
2023-02-11T03:35:28.374Z,5.62
2023-02-11T03:38:02.218Z,5.64
2023-02-11T03:40:32.647Z,5.68
2023-02-11T03:43:01.682Z,5.60
2023-02-11T03:45:28.638Z,5.62
2023-02-11T03:48:00.055Z,5.61
2023-02-11T03:50:27.073Z,5.61
2023-02-11T03:52:54.204Z,5.60
2023-02-11T03:55:21.718Z,5.52
2023-02-11T03:57:48.411Z,5.47
2023-02-11T04:00:15.398Z,5.49
2023-02-11T04:02:42.867Z,5.38
2023-02-11T04:05:14.328Z,5.43
2023-02-11T04:07:41.060Z,5.42
2023-02-11T04:10:08.246Z,5.49
2023-02-11T04:12:34.709Z,5.45
2023-02-11T04:15:01.206Z,5.51
2023-02-11T04:17:27.717Z,5.51
2023-02-11T04:19:54.510Z,5.44
2023-02-11T04:22:21.026Z,5.44
2023-02-11T04:24:47.556Z,5.45
2023-02-11T04:27:14.176Z,5.50
2023-02-11T04:29:40.690Z,5.53
2023-02-11T04:32:07.621Z,5.54
2023-02-11T04:34:34.160Z,5.53
2023-02-11T04:37:00.758Z,5.51
2023-02-11T04:39:27.475Z,5.44
2023-02-11T04:41:53.982Z,5.44
2023-02-11T04:44:20.533Z,5.46
2023-02-11T04:46:47.144Z,5.44
2023-02-11T04:49:14.968Z,5.54
2023-02-11T04:51:41.672Z,5.49
2023-02-11T04:54:08.251Z,5.51
2023-02-11T04:56:34.850Z,5.56
2023-02-11T04:59:01.597Z,5.65
2023-02-11T05:01:28.172Z,5.63
2023-02-11T05:03:54.695Z,5.65
2023-02-11T05:06:21.198Z,5.65
2023-02-11T05:08:47.694Z,5.67
2023-02-11T05:11:19.809Z,5.71
2023-02-11T05:13:47.030Z,5.70
2023-02-11T05:16:14.432Z,5.75
2023-02-11T05:18:42.253Z,5.74
2023-02-11T05:21:10.527Z,5.73
2023-02-11T05:23:37.379Z,5.74
2023-02-11T05:26:04.141Z,5.69
2023-02-11T05:28:30.763Z,5.68
2023-02-11T05:30:57.389Z,5.66
2023-02-11T05:33:24.309Z,5.67
2023-02-11T05:35:51.110Z,5.64
2023-02-11T05:38:17.794Z,5.61
2023-02-11T05:40:44.630Z,5.63
2023-02-11T05:43:11.223Z,5.62
2023-02-11T05:45:37.741Z,5.56
2023-02-11T05:48:04.557Z,5.51
2023-02-11T05:50:31.119Z,5.55
2023-02-11T05:52:57.668Z,5.55
2023-02-11T05:55:24.375Z,5.55
2023-02-11T05:57:50.874Z,5.48
2023-02-11T06:00:17.912Z,5.47
2023-02-11T06:02:44.586Z,5.49
2023-02-11T06:05:11.106Z,5.45
2023-02-11T06:07:37.613Z,5.41
2023-02-11T06:10:04.488Z,5.45
2023-02-11T06:12:30.977Z,5.48
2023-02-11T06:14:57.504Z,5.48
2023-02-11T06:17:25.331Z,5.50
2023-02-11T06:19:51.887Z,5.48
2023-02-11T06:22:18.387Z,5.48
2023-02-11T06:25:00.412Z,5.53
2023-02-11T06:27:27.771Z,5.54
2023-02-11T06:29:54.339Z,5.51
2023-02-11T06:32:42.327Z,5.46
2023-02-11T06:35:09.989Z,5.44
2023-02-11T06:37:37.872Z,5.43
2023-02-11T06:40:04.716Z,5.43
2023-02-11T06:42:31.407Z,5.44
2023-02-11T06:44:57.972Z,5.46
2023-02-11T06:47:25.129Z,5.48
2023-02-11T06:49:51.687Z,5.51
2023-02-11T06:52:18.208Z,5.49
2023-02-11T06:54:44.769Z,5.47
2023-02-11T06:57:11.363Z,5.50
2023-02-11T06:59:37.870Z,5.51
2023-02-11T07:02:04.471Z,5.52
2023-02-11T07:04:30.969Z,5.52
2023-02-11T07:06:57.446Z,5.54
2023-02-11T07:09:24.406Z,5.55
2023-02-11T07:11:50.976Z,5.50
2023-02-11T07:14:17.539Z,5.50
2023-02-11T07:16:44.118Z,5.49
2023-02-11T07:19:10.970Z,5.53
2023-02-11T07:21:37.809Z,5.56
2023-02-11T07:24:10.889Z,5.58
2023-02-11T07:26:37.966Z,5.57
2023-02-11T07:29:04.643Z,5.61
2023-02-11T07:31:31.414Z,5.59
2023-02-11T07:34:00.644Z,5.62
2023-02-11T07:36:28.982Z,5.65
2023-02-11T07:38:55.587Z,5.68
2023-02-11T07:41:25.080Z,5.66
2023-02-11T07:43:52.200Z,5.65
2023-02-11T07:46:23.939Z,5.69
2023-02-11T07:48:50.519Z,5.72
2023-02-11T07:51:22.521Z,5.77
2023-02-11T07:53:49.100Z,5.81
2023-02-11T07:56:16.768Z,5.82
2023-02-11T07:58:43.896Z,5.88
2023-02-11T08:01:13.726Z,5.91
2023-02-11T08:03:42.791Z,6.05
2023-02-11T08:06:12.270Z,6.03
2023-02-11T08:08:38.993Z,6.01
2023-02-11T08:11:17.100Z,6.15
2023-02-11T08:13:44.371Z,6.19
2023-02-11T08:16:22.606Z,6.24
2023-02-11T08:18:50.164Z,6.22
2023-02-11T08:21:16.837Z,6.27
2023-02-11T08:23:44.775Z,6.33
2023-02-11T08:26:17.084Z,6.35
2023-02-11T08:28:45.262Z,6.41
2023-02-11T08:31:18.012Z,6.41
2023-02-11T08:33:44.962Z,6.46
2023-02-11T08:36:13.965Z,6.49
2023-02-11T08:38:40.747Z,6.50
2023-02-11T08:41:07.954Z,6.67
2023-02-11T08:43:35.335Z,6.68
2023-02-11T08:46:02.503Z,6.70
2023-02-11T08:48:29.764Z,6.77
2023-02-11T08:50:56.876Z,6.80
2023-02-11T08:53:23.712Z,6.90
2023-02-11T08:55:51.249Z,7.05
2023-02-11T08:58:19.263Z,7.01
2023-02-11T09:00:46.582Z,7.15
2023-02-11T09:03:14.233Z,7.22
2023-02-11T09:05:47.952Z,7.27
2023-02-11T09:08:14.643Z,7.23
2023-02-11T09:10:41.361Z,7.33
2023-02-11T09:13:08.330Z,7.30
2023-02-11T09:15:35.338Z,7.42
2023-02-11T09:18:03.885Z,7.40
2023-02-11T09:20:30.816Z,7.42
2023-02-11T09:22:58.080Z,7.41
2023-02-11T09:25:24.940Z,7.47
2023-02-11T09:27:52.331Z,7.46
2023-02-11T09:30:18.904Z,7.54
2023-02-11T09:32:45.474Z,7.57
2023-02-11T09:35:11.985Z,7.63
2023-02-11T09:37:38.473Z,7.65
2023-02-11T09:40:05.547Z,7.60
2023-02-11T09:42:40.587Z,7.67
2023-02-11T09:45:15.840Z,7.69
2023-02-11T09:47:46.952Z,7.69
2023-02-11T09:50:16.511Z,7.68
2023-02-11T09:53:06.832Z,7.78
2023-02-11T09:55:37.984Z,7.82
2023-02-11T09:58:11.010Z,7.95
2023-02-11T10:00:42.077Z,7.99
2023-02-11T10:03:11.675Z,7.95
2023-02-11T10:05:51.045Z,8.02
2023-02-11T10:08:26.124Z,8.05
2023-02-11T10:11:40.820Z,8.13
2023-02-11T10:14:40.678Z,8.36
2023-02-11T10:17:31.605Z,8.28
2023-02-11T10:20:28.909Z,8.37
2023-02-11T10:22:58.802Z,8.43
2023-02-11T10:25:45.690Z,8.53
2023-02-11T10:28:20.332Z,8.43
2023-02-11T10:30:58.350Z,8.51
2023-02-11T10:33:24.827Z,8.41
2023-02-11T10:35:51.470Z,8.41
2023-02-11T10:38:18.096Z,8.43
2023-02-11T10:40:44.667Z,8.59
2023-02-11T10:43:25.867Z,8.58
2023-02-11T10:45:53.828Z,8.59
2023-02-11T10:48:39.362Z,8.85
2023-02-11T10:51:33.570Z,8.95
2023-02-11T10:54:13.812Z,9.13
2023-02-11T10:56:50.244Z,9.21
2023-02-11T10:59:46.590Z,9.31
2023-02-11T11:02:32.201Z,9.19
2023-02-11T11:04:59.189Z,9.11
2023-02-11T11:07:30.108Z,9.19
2023-02-11T11:10:29.203Z,9.31
2023-02-11T11:12:55.901Z,9.27
2023-02-11T11:15:25.019Z,9.41
2023-02-11T11:18:20.943Z,9.31
2023-02-11T11:21:00.228Z,9.27
2023-02-11T11:23:28.533Z,9.29
2023-02-11T11:26:05.952Z,9.13
2023-02-11T11:28:54.647Z,9.14
2023-02-11T11:31:28.179Z,9.18
2023-02-11T11:33:56.901Z,9.18
2023-02-11T11:36:32.016Z,9.18
2023-02-11T11:39:02.061Z,9.35
2023-02-11T11:41:30.943Z,9.38
2023-02-11T11:44:19.203Z,9.39
2023-02-11T11:46:46.536Z,9.47
2023-02-11T11:49:26.426Z,9.57
2023-02-11T11:52:34.664Z,9.55
2023-02-11T11:55:16.388Z,9.54
2023-02-11T11:57:43.000Z,9.58
2023-02-11T12:00:32.532Z,9.60
2023-02-11T12:03:05.211Z,9.63
2023-02-11T12:05:36.396Z,9.59
2023-02-11T12:08:28.984Z,9.50
2023-02-11T12:11:07.918Z,9.48
2023-02-11T12:13:46.150Z,9.43
2023-02-11T12:16:34.683Z,9.49
2023-02-11T12:19:12.051Z,9.48
2023-02-11T12:21:55.508Z,9.45
2023-02-11T12:24:31.684Z,9.35
2023-02-11T12:27:10.856Z,9.41
2023-02-11T12:29:40.617Z,9.52
2023-02-11T12:32:43.928Z,9.39
2023-02-11T12:35:25.884Z,9.44
2023-02-11T12:38:18.899Z,9.43
2023-02-11T12:41:10.386Z,9.32
2023-02-11T12:43:41.204Z,9.52
2023-02-11T12:46:32.559Z,9.39
2023-02-11T12:49:26.628Z,9.48
2023-02-11T12:52:02.991Z,9.63
2023-02-11T12:54:40.474Z,9.76
2023-02-11T12:57:15.234Z,9.83
2023-02-11T12:59:56.462Z,9.91
2023-02-11T13:02:49.660Z,9.93
2023-02-11T13:05:55.009Z,9.98
2023-02-11T13:08:25.712Z,9.71
2023-02-11T13:11:04.988Z,9.69
2023-02-11T13:13:39.521Z,9.61
2023-02-11T13:16:13.483Z,9.73
2023-02-11T13:18:44.839Z,9.69
2023-02-11T13:21:17.771Z,9.78
2023-02-11T13:23:54.981Z,9.82
2023-02-11T13:26:29.590Z,9.77
2023-02-11T13:29:14.321Z,9.79
2023-02-11T13:31:40.941Z,9.88
2023-02-11T13:34:43.012Z,9.85
2023-02-11T13:37:19.611Z,9.88
2023-02-11T13:40:00.645Z,9.89
2023-02-11T13:42:28.422Z,9.80
2023-02-11T13:44:55.354Z,9.79
2023-02-11T13:47:35.228Z,9.68
2023-02-11T13:50:04.976Z,9.73
2023-02-11T13:52:37.434Z,9.78
2023-02-11T13:55:21.489Z,9.75
2023-02-11T13:58:07.915Z,9.75
2023-02-11T14:00:34.598Z,9.83
2023-02-11T14:03:31.758Z,9.97
2023-02-11T14:06:46.698Z,10.01
2023-02-11T14:09:13.130Z,9.96
2023-02-11T14:11:55.257Z,9.92
2023-02-11T14:14:26.941Z,10.08
2023-02-11T14:17:02.640Z,9.96
2023-02-11T14:19:43.901Z,9.98
2023-02-11T14:22:10.416Z,10.07
2023-02-11T14:24:36.856Z,10.06
2023-02-11T14:27:13.797Z,10.05
2023-02-11T14:29:58.818Z,9.90
2023-02-11T14:32:31.191Z,9.75
2023-02-11T14:35:18.472Z,9.72
2023-02-11T14:38:26.674Z,9.67
2023-02-11T14:41:10.913Z,9.73
2023-02-11T14:43:41.357Z,9.71
2023-02-11T14:46:08.849Z,9.70
2023-02-11T14:48:37.340Z,9.63
2023-02-11T14:51:10.668Z,9.54
2023-02-11T14:53:38.259Z,9.48
2023-02-11T14:56:18.438Z,9.54
2023-02-11T14:58:49.368Z,9.53
2023-02-11T15:01:27.781Z,9.42
2023-02-11T15:04:00.496Z,9.30
2023-02-11T15:06:32.930Z,9.28
2023-02-11T15:09:18.766Z,9.27
2023-02-11T15:11:47.716Z,9.28
2023-02-11T15:14:17.310Z,9.15
2023-02-11T15:16:45.276Z,9.23
2023-02-11T15:19:23.575Z,9.16
2023-02-11T15:21:50.960Z,9.09
2023-02-11T15:24:24.277Z,9.08
2023-02-11T15:26:58.463Z,9.07
2023-02-11T15:29:26.980Z,9.09
2023-02-11T15:32:07.900Z,9.16
2023-02-11T15:34:34.889Z,9.14
2023-02-11T15:37:03.313Z,9.11
2023-02-11T15:39:36.806Z,9.05
2023-02-11T15:42:29.060Z,9.06
2023-02-11T15:45:29.109Z,9.03
2023-02-11T15:48:05.436Z,9.05
2023-02-11T15:50:35.127Z,8.97
2023-02-11T15:53:24.442Z,8.99
2023-02-11T15:55:53.167Z,8.94
2023-02-11T15:58:20.123Z,8.95
2023-02-11T16:00:49.066Z,8.81
2023-02-11T16:03:24.349Z,8.82
2023-02-11T16:05:51.159Z,8.76
2023-02-11T16:08:22.253Z,8.72
2023-02-11T16:11:02.991Z,8.67
2023-02-11T16:13:33.746Z,8.70
2023-02-11T16:16:04.782Z,8.68
2023-02-11T16:18:38.628Z,8.64
2023-02-11T16:21:14.258Z,8.61
2023-02-11T16:23:42.478Z,8.50
2023-02-11T16:26:31.984Z,8.49
2023-02-11T16:29:11.961Z,8.50
2023-02-11T16:31:41.329Z,8.49
2023-02-11T16:34:17.773Z,8.51
2023-02-11T16:36:45.088Z,8.43
2023-02-11T16:39:11.658Z,8.39
2023-02-11T16:41:38.200Z,8.41
2023-02-11T16:44:05.082Z,8.41
2023-02-11T16:46:32.794Z,8.37
2023-02-11T16:49:04.818Z,8.32
2023-02-11T16:51:31.470Z,8.27
2023-02-11T16:53:57.984Z,8.23
2023-02-11T16:56:24.779Z,8.24
2023-02-11T16:58:51.308Z,8.24
2023-02-11T17:01:17.966Z,8.21
2023-02-11T17:03:45.643Z,8.12
2023-02-11T17:06:13.213Z,8.18
2023-02-11T17:08:40.231Z,8.19
2023-02-11T17:11:06.736Z,8.17
2023-02-11T17:13:33.713Z,8.19
2023-02-11T17:16:00.336Z,8.21
2023-02-11T17:18:26.979Z,8.15
2023-02-11T17:20:53.725Z,8.14
2023-02-11T17:23:20.275Z,8.14
2023-02-11T17:25:47.088Z,8.14
2023-02-11T17:28:13.661Z,8.13
2023-02-11T17:30:41.874Z,8.15
2023-02-11T17:33:08.416Z,8.15
2023-02-11T17:35:34.922Z,8.15
2023-02-11T17:38:01.631Z,8.11
2023-02-11T17:40:28.196Z,8.08
2023-02-11T17:42:54.708Z,8.07
2023-02-11T17:45:22.357Z,8.09
2023-02-11T17:47:49.516Z,8.09
2023-02-11T17:50:16.174Z,8.08
2023-02-11T17:52:42.728Z,8.07
2023-02-11T17:55:09.472Z,8.10
2023-02-11T17:57:36.114Z,8.04
2023-02-11T18:00:04.921Z,8.00
2023-02-11T18:02:31.404Z,8.00
2023-02-11T18:04:58.797Z,8.04
2023-02-11T18:07:26.265Z,8.05
2023-02-11T18:09:53.216Z,8.04
2023-02-11T18:12:26.261Z,7.97
2023-02-11T18:14:58.020Z,7.99
2023-02-11T18:17:25.458Z,7.97
2023-02-11T18:19:55.950Z,7.98
2023-02-11T18:22:22.775Z,7.96
2023-02-11T18:24:53.988Z,7.91
2023-02-11T18:27:23.506Z,7.88
2023-02-11T18:29:50.266Z,7.92
2023-02-11T18:32:16.813Z,7.93
2023-02-11T18:34:43.375Z,7.93
2023-02-11T18:37:10.327Z,7.94
2023-02-11T18:39:37.160Z,7.95
2023-02-11T18:42:03.818Z,7.99
2023-02-11T18:44:30.408Z,8.02
2023-02-11T18:46:56.929Z,8.07
2023-02-11T18:49:23.518Z,8.06
2023-02-11T18:51:50.108Z,8.04
2023-02-11T18:54:17.062Z,8.00
2023-02-11T18:56:44.465Z,7.98
2023-02-11T18:59:11.110Z,7.96
2023-02-11T19:01:40.003Z,7.95
2023-02-11T19:04:06.710Z,7.87
2023-02-11T19:06:36.261Z,7.83
2023-02-11T19:09:09.843Z,7.83
2023-02-11T19:11:50.260Z,7.81
2023-02-11T19:14:24.466Z,7.90
2023-02-11T19:16:53.488Z,7.85
2023-02-11T19:19:22.299Z,7.85
2023-02-11T19:21:48.966Z,7.89
2023-02-11T19:24:18.870Z,7.91
2023-02-11T19:26:47.089Z,7.89
2023-02-11T19:29:13.864Z,7.91
2023-02-11T19:31:40.557Z,7.89
2023-02-11T19:34:07.994Z,7.94
2023-02-11T19:36:34.726Z,7.95
2023-02-11T19:39:02.132Z,7.96
2023-02-11T19:41:29.869Z,7.89
2023-02-11T19:43:56.941Z,7.88
2023-02-11T19:46:25.004Z,7.88
2023-02-11T19:48:51.829Z,7.87
2023-02-11T19:51:19.028Z,7.89
2023-02-11T19:53:46.113Z,7.98
2023-02-11T19:56:13.643Z,7.97
2023-02-11T19:58:40.639Z,8.00
2023-02-11T20:01:19.620Z,7.97
2023-02-11T20:03:50.003Z,7.98
2023-02-11T20:06:19.300Z,7.99
2023-02-11T20:08:45.836Z,7.97
2023-02-11T20:11:15.416Z,7.93
2023-02-11T20:13:42.807Z,7.90
2023-02-11T20:16:16.566Z,7.87
2023-02-11T20:18:43.837Z,7.85
2023-02-11T20:21:12.549Z,7.87
2023-02-11T20:23:40.420Z,7.88
2023-02-11T20:26:08.202Z,7.87
2023-02-11T20:28:35.298Z,7.87
2023-02-11T20:31:02.460Z,7.85
2023-02-11T20:33:30.131Z,7.79
2023-02-11T20:36:01.968Z,7.81
2023-02-11T20:38:29.055Z,7.80
2023-02-11T20:40:55.831Z,7.81
2023-02-11T20:43:22.414Z,7.78
2023-02-11T20:45:49.529Z,7.74
2023-02-11T20:48:16.426Z,7.76
2023-02-11T20:50:43.054Z,7.76
2023-02-11T20:53:10.833Z,7.76
2023-02-11T20:55:39.160Z,7.75
2023-02-11T20:58:07.484Z,7.75
2023-02-11T21:00:35.624Z,7.74
2023-02-11T21:03:02.207Z,7.75
2023-02-11T21:05:29.385Z,7.77
2023-02-11T21:07:55.993Z,7.78
2023-02-11T21:10:22.939Z,7.78
2023-02-11T21:12:49.983Z,7.74
2023-02-11T21:15:16.809Z,7.74
2023-02-11T21:17:43.298Z,7.73
2023-02-11T21:20:10.214Z,7.70
2023-02-11T21:22:37.059Z,7.71
2023-02-11T21:25:06.050Z,7.72
2023-02-11T21:27:33.858Z,7.72
2023-02-11T21:30:01.365Z,7.69
2023-02-11T21:32:28.254Z,7.68
2023-02-11T21:34:54.818Z,7.69
2023-02-11T21:37:23.138Z,7.68
2023-02-11T21:39:50.246Z,7.66
2023-02-11T21:42:16.819Z,7.61
2023-02-11T21:44:43.357Z,7.64
2023-02-11T21:47:10.027Z,7.65
2023-02-11T21:49:36.742Z,7.64
2023-02-11T21:52:03.377Z,7.64
2023-02-11T21:54:32.044Z,7.64
2023-02-11T21:56:59.695Z,7.66
2023-02-11T21:59:26.173Z,7.66
2023-02-11T22:01:52.712Z,7.63
2023-02-11T22:04:19.211Z,7.65
2023-02-11T22:06:45.794Z,7.62
2023-02-11T22:09:12.367Z,7.61
2023-02-11T22:11:38.961Z,7.57
2023-02-11T22:14:06.809Z,7.54
2023-02-11T22:16:33.580Z,7.54
2023-02-11T22:19:02.271Z,7.54
2023-02-11T22:21:28.801Z,7.51
2023-02-11T22:23:56.228Z,7.53
2023-02-11T22:26:24.811Z,7.53
2023-02-11T22:28:51.840Z,7.53
2023-02-11T22:31:21.785Z,7.53
2023-02-11T22:33:48.675Z,7.52
2023-02-11T22:36:27.334Z,7.54
2023-02-11T22:38:54.573Z,7.51
2023-02-11T22:41:21.803Z,7.50
2023-02-11T22:43:48.388Z,7.48
2023-02-11T22:46:18.100Z,7.47
2023-02-11T22:48:44.799Z,7.46
2023-02-11T22:51:16.924Z,7.46
2023-02-11T22:53:44.401Z,7.44
2023-02-11T22:56:15.373Z,7.43
2023-02-11T22:58:42.604Z,7.43
2023-02-11T23:01:09.513Z,7.41
2023-02-11T23:03:36.420Z,7.42
2023-02-11T23:06:03.156Z,7.38
2023-02-11T23:08:31.077Z,7.37
2023-02-11T23:11:07.501Z,7.36
2023-02-11T23:13:35.853Z,7.34
2023-02-11T23:16:08.657Z,7.36
2023-02-11T23:18:37.249Z,7.35
2023-02-11T23:21:06.677Z,7.36
2023-02-11T23:23:34.157Z,7.35
2023-02-11T23:26:01.447Z,7.33
2023-02-11T23:28:28.255Z,7.32
2023-02-11T23:30:54.882Z,7.31
2023-02-11T23:33:22.232Z,7.30
2023-02-11T23:35:48.833Z,7.29
2023-02-11T23:38:15.385Z,7.26
2023-02-11T23:40:42.264Z,7.27
2023-02-11T23:43:09.080Z,7.26
2023-02-11T23:45:35.757Z,7.20
2023-02-11T23:48:02.292Z,7.20
2023-02-11T23:50:28.846Z,7.17
2023-02-11T23:52:55.328Z,7.20
2023-02-11T23:55:21.802Z,7.20
2023-02-11T23:57:48.262Z,7.19
